createdAt,value
2022-10-12T00:02:54.635Z,101622.52
2022-10-12T00:08:00.564Z,101623.80
2022-10-12T00:13:07.007Z,101629.91
2022-10-12T00:18:12.982Z,101627.47
2022-10-12T00:23:19.111Z,101627.11
2022-10-12T00:28:25.108Z,101624.41
2022-10-12T00:33:31.058Z,101619.91
2022-10-12T00:38:36.884Z,101622.85
2022-10-12T00:43:45.161Z,101626.02
2022-10-12T00:48:55.304Z,101628.44
2022-10-12T00:54:06.193Z,101633.08
2022-10-12T00:59:22.053Z,101632.14
2022-10-12T01:04:29.721Z,101636.06
2022-10-12T01:09:35.560Z,101640.61
2022-10-12T01:14:41.395Z,101643.10
2022-10-12T01:20:09.875Z,101650.06
2022-10-12T01:25:34.801Z,101650.95
2022-10-12T01:30:43.786Z,101654.59
2022-10-12T01:35:58.612Z,101659.46
2022-10-12T01:41:11.011Z,101661.52
2022-10-12T01:46:41.774Z,101664.08
2022-10-12T01:52:10.671Z,101663.92
2022-10-12T01:57:24.480Z,101666.05
2022-10-12T02:02:38.990Z,101668.52
2022-10-12T02:07:50.079Z,101670.23
2022-10-12T02:12:58.878Z,101667.77
2022-10-12T02:18:06.611Z,101669.54
2022-10-12T02:23:13.134Z,101670.86
2022-10-12T02:28:23.243Z,101673.69
2022-10-12T02:33:35.754Z,101673.55
2022-10-12T02:38:47.237Z,101673.64
2022-10-12T02:43:56.866Z,101678.49
2022-10-12T02:49:05.199Z,101680.06
2022-10-12T02:54:11.219Z,101684.73
2022-10-12T02:59:19.026Z,101686.41
2022-10-12T03:04:24.803Z,101685.70
2022-10-12T03:09:30.818Z,101677.93
2022-10-12T03:14:37.580Z,101675.81
2022-10-12T03:19:43.606Z,101668.16
2022-10-12T03:24:49.785Z,101672.65
2022-10-12T03:29:55.591Z,101667.18
2022-10-12T03:35:01.454Z,101673.73
2022-10-12T03:40:10.446Z,101674.83
2022-10-12T03:45:16.540Z,101674.22
2022-10-12T03:50:22.392Z,101676.17
2022-10-12T03:55:28.568Z,101675.77
2022-10-12T04:00:34.357Z,101678.20
2022-10-12T04:05:40.891Z,101683.58
2022-10-12T04:10:47.123Z,101683.14
2022-10-12T04:20:22.471Z,101680.80
2022-10-12T04:25:30.219Z,101685.85
2022-10-12T04:30:36.484Z,101688.32
2022-10-12T04:35:42.459Z,101687.91
2022-10-12T04:40:50.007Z,101688.45
2022-10-12T04:46:00.306Z,101694.00
2022-10-12T04:51:06.605Z,101694.68
2022-10-12T04:56:12.439Z,101692.53
2022-10-12T05:01:18.526Z,101691.88
2022-10-12T05:06:24.568Z,101698.23
2022-10-12T05:11:30.813Z,101702.29
2022-10-12T05:16:37.120Z,101713.70
2022-10-12T05:21:42.886Z,101715.73
2022-10-12T05:26:51.611Z,101718.95
2022-10-12T05:32:01.477Z,101721.33
2022-10-12T05:37:11.450Z,101728.27
2022-10-12T05:42:18.964Z,101730.38
2022-10-12T05:47:24.851Z,101732.32
2022-10-12T05:52:30.863Z,101737.84
2022-10-12T05:57:37.778Z,101738.30
2022-10-12T06:02:43.939Z,101741.86
2022-10-12T06:07:50.216Z,101742.61
2022-10-12T06:12:56.315Z,101738.40
2022-10-12T06:18:04.653Z,101744.60
2022-10-12T06:23:10.481Z,101740.80
2022-10-12T06:28:17.904Z,101744.59
2022-10-12T06:33:24.760Z,101744.16
2022-10-12T06:38:30.775Z,101748.21
2022-10-12T06:43:36.585Z,101750.70
2022-10-12T06:48:42.533Z,101750.52
2022-10-12T06:53:48.348Z,101750.14
2022-10-12T06:58:56.921Z,101745.94
2022-10-12T07:04:02.734Z,101749.23
2022-10-12T07:09:08.571Z,101751.62
2022-10-12T07:14:14.489Z,101750.65
2022-10-12T07:19:20.461Z,101754.67
2022-10-12T07:24:35.160Z,101751.60
2022-10-12T07:29:41.293Z,101752.10
2022-10-12T07:34:47.453Z,101747.66
2022-10-12T07:39:57.368Z,101747.80
2022-10-12T07:45:03.686Z,101740.65
2022-10-12T07:50:10.623Z,101737.39
2022-10-12T07:55:16.998Z,101738.77
2022-10-12T08:00:22.932Z,101738.33
2022-10-12T08:05:28.945Z,101739.70
2022-10-12T08:10:37.889Z,101747.09
2022-10-12T08:15:50.374Z,101745.19
2022-10-12T08:20:56.926Z,101745.65
2022-10-12T08:26:03.585Z,101746.92
2022-10-12T08:31:12.144Z,101744.00
2022-10-12T08:36:18.131Z,101742.40
2022-10-12T08:41:40.441Z,101736.70
2022-10-12T08:46:47.107Z,101740.31
2022-10-12T08:51:55.390Z,101737.39
2022-10-12T08:57:01.305Z,101744.02
2022-10-12T09:02:25.044Z,101744.56
2022-10-12T09:07:35.284Z,101750.70
2022-10-12T09:12:50.636Z,101750.83
2022-10-12T09:17:58.792Z,101743.02
2022-10-12T09:23:16.746Z,101738.14
2022-10-12T09:28:27.928Z,101734.23
2022-10-12T09:33:41.297Z,101738.48
2022-10-12T09:38:47.588Z,101734.71
2022-10-12T09:43:59.205Z,101731.97
2022-10-12T09:49:05.345Z,101731.77
2022-10-12T09:54:20.068Z,101731.67
2022-10-12T09:59:30.775Z,101730.32
2022-10-12T10:04:37.025Z,101727.80
2022-10-12T10:09:43.169Z,101732.55
2022-10-12T10:14:52.836Z,101734.43
2022-10-12T10:20:02.350Z,101731.48
2022-10-12T10:25:19.255Z,101731.66
2022-10-12T10:30:33.911Z,101729.66
2022-10-12T10:35:52.635Z,101730.61
2022-10-12T10:41:00.362Z,101720.23
2022-10-12T10:46:06.520Z,101714.02
2022-10-12T10:51:13.168Z,101710.77
2022-10-12T10:56:23.648Z,101711.13
2022-10-12T11:01:40.049Z,101704.33
2022-10-12T11:06:49.320Z,101701.06
2022-10-12T11:12:01.008Z,101696.34
2022-10-12T11:17:12.925Z,101699.27
2022-10-12T11:22:23.793Z,101703.83
2022-10-12T11:27:36.042Z,101700.98
2022-10-12T11:32:47.134Z,101690.98
2022-10-12T11:37:58.184Z,101689.22
2022-10-12T11:43:11.567Z,101685.27
2022-10-12T11:48:26.871Z,101681.83
2022-10-12T11:53:41.533Z,101676.77
2022-10-12T11:59:00.650Z,101673.09
2022-10-12T12:04:41.579Z,101673.61
2022-10-12T12:09:51.520Z,101676.46
2022-10-12T12:15:19.626Z,101679.71
2022-10-12T12:21:01.834Z,101679.96
2022-10-12T12:26:17.024Z,101677.71
2022-10-12T12:31:30.555Z,101675.92
2022-10-12T12:36:40.382Z,101677.27
2022-10-12T12:41:57.726Z,101674.62
2022-10-12T12:47:47.941Z,101666.96
2022-10-12T12:53:26.641Z,101669.34
2022-10-12T12:59:04.154Z,101665.72
2022-10-12T13:04:38.616Z,101664.44
2022-10-12T13:10:01.838Z,101667.09
2022-10-12T13:15:38.574Z,101667.60
2022-10-12T13:20:46.738Z,101664.47
2022-10-12T13:25:58.787Z,101663.34
2022-10-12T13:31:09.629Z,101662.33
2022-10-12T13:36:23.928Z,101662.41
2022-10-12T13:41:31.881Z,101664.47
2022-10-12T13:46:42.202Z,101665.11
2022-10-12T13:51:49.987Z,101665.29
2022-10-12T13:56:59.657Z,101665.20
2022-10-12T14:02:18.750Z,101666.53
2022-10-12T14:07:28.607Z,101661.05
2022-10-12T14:12:37.538Z,101663.60
2022-10-12T14:17:53.111Z,101664.70
2022-10-12T14:23:01.154Z,101664.76
2022-10-12T14:28:19.446Z,101664.05
2022-10-12T14:33:26.846Z,101662.81
2022-10-12T14:38:42.075Z,101662.73
2022-10-12T14:44:09.652Z,101663.51
2022-10-12T14:49:20.157Z,101665.09
2022-10-12T14:54:26.331Z,101665.16
2022-10-12T14:59:32.240Z,101664.41
2022-10-12T15:04:38.016Z,101666.63
2022-10-12T15:09:44.463Z,101669.27
2022-10-12T15:14:51.776Z,101666.72
2022-10-12T15:19:57.548Z,101662.85
2022-10-12T15:25:06.389Z,101664.23
2022-10-12T15:30:14.286Z,101664.64
2022-10-12T15:35:23.887Z,101669.33
2022-10-12T15:40:31.467Z,101665.79
2022-10-12T15:45:39.977Z,101667.58
2022-10-12T15:50:48.553Z,101659.98
2022-10-12T15:55:55.815Z,101657.14
2022-10-12T16:01:02.754Z,101660.89
2022-10-12T16:06:09.091Z,101665.09
2022-10-12T16:11:16.809Z,101666.86
2022-10-12T16:16:22.702Z,101669.80
2022-10-12T16:21:28.745Z,101669.00
2022-10-12T16:26:34.681Z,101669.73
2022-10-12T16:36:46.566Z,101668.48
2022-10-12T16:41:53.146Z,101668.92
2022-10-12T16:46:59.817Z,101665.52
2022-10-12T16:52:06.323Z,101670.57
2022-10-12T16:57:12.351Z,101674.30
2022-10-12T17:02:19.480Z,101677.70
2022-10-12T17:07:26.097Z,101671.77
2022-10-12T17:12:32.029Z,101675.75
2022-10-12T17:17:37.963Z,101681.13
2022-10-12T17:22:43.679Z,101678.95
2022-10-12T17:27:50.640Z,101675.29
2022-10-12T17:32:56.522Z,101676.45
2022-10-12T17:38:02.333Z,101677.34
2022-10-12T17:43:08.205Z,101678.15
2022-10-12T17:48:15.348Z,101676.33
2022-10-12T17:53:21.706Z,101675.20
2022-10-12T17:58:27.902Z,101672.25
2022-10-12T18:03:33.786Z,101671.42
2022-10-12T18:08:40.215Z,101669.23
2022-10-12T18:13:49.562Z,101666.51
2022-10-12T18:18:55.874Z,101667.41
2022-10-12T18:24:06.911Z,101672.81
2022-10-12T18:29:13.508Z,101671.95
2022-10-12T18:34:19.474Z,101670.77
2022-10-12T18:39:25.484Z,101666.11
2022-10-12T18:44:31.408Z,101667.49
2022-10-12T18:49:37.204Z,101671.65
2022-10-12T18:54:45.041Z,101669.75
2022-10-12T18:59:52.876Z,101670.82
2022-10-12T19:04:58.923Z,101678.99
2022-10-12T19:10:09.477Z,101683.35
2022-10-12T19:15:16.718Z,101683.36
2022-10-12T19:20:22.656Z,101685.80
2022-10-12T19:25:28.681Z,101684.94
2022-10-12T19:30:38.981Z,101682.52
2022-10-12T19:35:45.383Z,101687.02
2022-10-12T19:40:51.925Z,101687.89
2022-10-12T19:46:01.730Z,101689.27
2022-10-12T19:51:10.917Z,101692.39
2022-10-12T19:56:20.766Z,101696.02
2022-10-12T20:01:29.546Z,101691.85
2022-10-12T20:06:36.416Z,101689.43
2022-10-12T20:11:42.289Z,101686.66
2022-10-12T20:16:48.105Z,101684.23
2022-10-12T20:21:53.976Z,101681.98
2022-10-12T20:26:59.934Z,101685.48
2022-10-12T20:32:06.426Z,101685.31
2022-10-12T20:37:14.393Z,101694.49
2022-10-12T20:42:22.068Z,101696.75
2022-10-12T20:47:29.033Z,101694.13
2022-10-12T20:52:34.981Z,101692.86
2022-10-12T20:57:40.976Z,101695.08
2022-10-12T21:02:46.660Z,101694.85
2022-10-12T21:07:52.481Z,101694.28
2022-10-12T21:12:58.302Z,101693.52
2022-10-12T21:18:04.168Z,101700.70
2022-10-12T21:23:10.318Z,101698.95
2022-10-12T21:28:16.505Z,101698.88
2022-10-12T21:33:22.861Z,101700.90
2022-10-12T21:38:31.602Z,101705.64
2022-10-12T21:43:37.623Z,101700.03
2022-10-12T21:48:43.752Z,101704.30
2022-10-12T21:53:50.578Z,101703.19
2022-10-12T21:58:58.226Z,101703.55
2022-10-12T22:04:06.841Z,101704.45
2022-10-12T22:09:16.664Z,101704.11
2022-10-12T22:14:22.574Z,101706.75
2022-10-12T22:19:28.586Z,101705.48
2022-10-12T22:24:34.400Z,101707.10
2022-10-12T22:29:40.245Z,101706.79
2022-10-12T22:34:46.087Z,101703.19
2022-10-12T22:39:51.897Z,101702.86
2022-10-12T22:44:57.871Z,101702.19
2022-10-12T22:50:03.767Z,101703.19
2022-10-12T22:55:10.885Z,101706.56
2022-10-12T23:00:18.094Z,101708.11
2022-10-12T23:05:23.925Z,101712.48
2022-10-12T23:10:30.377Z,101707.55
2022-10-12T23:15:36.309Z,101710.32
2022-10-12T23:20:42.817Z,101714.61
2022-10-12T23:25:48.954Z,101715.56
2022-10-12T23:30:54.866Z,101714.72
2022-10-12T23:36:03.216Z,101713.83
2022-10-12T23:41:09.631Z,101714.11
2022-10-12T23:46:15.997Z,101717.59
2022-10-12T23:51:21.851Z,101715.84
2022-10-12T23:56:27.966Z,101714.95
